Terminal Aerodrome Forecast
Issued by NWS

Home | Current Version | Previous Version | Text Only | Print | Product List | Glossary On
Versions: 1 2 3 4 5 6 7 8 9 10 11 12 13 14 15 16 17 18 19 20 21 22 23 24 25 26 27 28 29 30 31
000
FTUS43 KGLD 221700
TAFMCK
TAF
KMCK 221733Z 2218/2318 04010KT P6SM SKC
     FM222300 08011KT P6SM SCT060
     FM230400 VRB06KT P6SM SCT100
     FM230900 VRB06KT 6SM BR VCFG SCT012
     FM231600 11012KT P6SM FEW020=

USA.gov is the U.S. government's official web portal to all federal, state and local government web resources and services.